Time;durP1;ratioP1;P1;durP2;ratioP2;P2;SDS_P1;SDS_P2;PMS_P1;PMS_P2;Temp;Humidity;BMP_temperature;BMP_pressure;BME280_temperature;BME280_humidity;BME280_pressure;Samples;Min_cycle;Max_cycle;Signal;HPM_P1;HPM_P2
2021/03/31 00:02:16;;;;;;;3.38;2.05;;;12.90;45.30;;;;;;5054609;28;20029;-72
2021/03/31 00:04:42;;;;;;;4.25;2.63;;;12.90;45.20;;;;;;5054585;28;20024;-73
2021/03/31 00:07:12;;;;;;;5.13;2.47;;;12.90;45.50;;;;;;5054636;28;20040;-72
2021/03/31 00:09:39;;;;;;;6.53;3.35;;;12.80;45.40;;;;;;5054518;28;20027;-72
2021/03/31 00:12:07;;;;;;;8.48;3.10;;;12.80;45.70;;;;;;5054534;28;20017;-72
2021/03/31 00:14:33;;;;;;;9.23;3.38;;;12.80;46.00;;;;;;5054297;28;20500;-72
2021/03/31 00:16:58;;;;;;;9.80;3.75;;;12.70;46.00;;;;;;5054405;28;20021;-72
2021/03/31 00:19:24;;;;;;;4.40;2.88;;;12.70;46.10;;;;;;5054336;28;20025;-72
2021/03/31 00:21:50;;;;;;;7.40;3.78;;;12.70;46.00;;;;;;5054305;28;20028;-72
2021/03/31 00:24:15;;;;;;;12.82;5.60;;;12.70;46.00;;;;;;5054172;28;20025;-72
2021/03/31 00:26:41;;;;;;;9.30;5.60;;;12.60;46.30;;;;;;5054255;28;20032;-72
2021/03/31 00:29:07;;;;;;;10.82;5.45;;;12.60;46.60;;;;;;5054199;28;20025;-72
2021/03/31 00:31:33;;;;;;;8.60;4.30;;;12.60;46.50;;;;;;5052866;28;20029;-73
2021/03/31 00:33:59;;;;;;;7.90;3.33;;;12.50;46.30;;;;;;5054094;28;20119;-73
2021/03/31 00:36:24;;;;;;;5.15;2.97;;;12.50;46.40;;;;;;5052768;28;20518;-71
2021/03/31 00:38:50;;;;;;;9.45;3.40;;;12.50;46.50;;;;;;5054005;28;20074;-71
2021/03/31 00:41:16;;;;;;;5.55;2.88;;;12.50;46.80;;;;;;5053975;28;20029;-71
2021/03/31 00:43:42;;;;;;;6.00;3.30;;;12.40;46.50;;;;;;5053930;28;20026;-72
2021/03/31 00:46:08;;;;;;;6.40;2.75;;;12.40;46.80;;;;;;5053916;28;20021;-72
2021/03/31 00:48:34;;;;;;;5.13;2.90;;;12.40;46.50;;;;;;5053908;28;20494;-72
2021/03/31 00:51:02;;;;;;;4.45;2.80;;;12.40;46.50;;;;;;5053438;28;20086;-72
2021/03/31 00:53:33;;;;;;;5.07;2.30;;;12.40;46.70;;;;;;5052908;28;20025;-72
2021/03/31 00:56:00;;;;;;;6.45;2.97;;;12.30;46.60;;;;;;5053776;28;20029;-72
2021/03/31 00:58:25;;;;;;;10.52;2.90;;;12.30;46.60;;;;;;5053651;28;20032;-72
2021/03/31 01:00:52;;;;;;;6.70;2.97;;;12.30;46.80;;;;;;5067960;28;20028;-72
2021/03/31 01:03:18;;;;;;;6.53;2.70;;;12.30;46.90;;;;;;5053407;28;20028;-72
2021/03/31 01:05:44;;;;;;;7.85;3.22;;;12.20;47.00;;;;;;5052305;28;20025;-72
2021/03/31 01:08:10;;;;;;;7.68;3.78;;;12.20;47.40;;;;;;5053352;28;20050;-72
2021/03/31 01:10:46;;;;;;;13.75;3.88;;;12.20;47.80;;;;;;5053216;28;20452;-72
2021/03/31 01:13:39;;;;;;;8.98;4.00;;;12.20;48.40;;;;;;5053199;28;20486;-72
2021/03/31 01:16:23;;;;;;;6.35;3.55;;;12.20;48.60;;;;;;5053157;28;20032;-72
2021/03/31 01:18:58;;;;;;;11.80;4.13;;;12.10;48.50;;;;;;5053002;28;20071;-72
2021/03/31 01:21:33;;;;;;;12.38;4.30;;;12.10;48.90;;;;;;5053134;28;20474;-72
2021/03/31 01:24:08;;;;;;;6.00;3.30;;;12.10;49.20;;;;;;5052917;28;20516;-72
2021/03/31 01:26:54;;;;;;;6.50;2.90;;;12.10;49.20;;;;;;5052936;28;20021;-72
2021/03/31 01:29:54;;;;;;;6.82;2.95;;;12.00;48.70;;;;;;5052984;28;20017;-72
2021/03/31 01:32:33;;;;;;;7.97;3.65;;;12.00;48.60;;;;;;5052999;28;20447;-72
2021/03/31 01:35:16;;;;;;;7.82;3.60;;;12.00;48.60;;;;;;5052776;28;20036;-72
2021/03/31 01:37:46;;;;;;;7.22;3.42;;;12.00;48.50;;;;;;5052854;28;20029;-72
2021/03/31 01:40:16;;;;;;;6.72;3.10;;;11.90;48.60;;;;;;5052949;28;20478;-72
2021/03/31 01:42:48;;;;;;;5.25;2.70;;;11.90;48.60;;;;;;5052726;28;20060;-72
2021/03/31 01:45:17;;;;;;;3.80;2.45;;;11.90;48.60;;;;;;5051420;28;20432;-73
2021/03/31 01:47:46;;;;;;;5.38;3.13;;;11.80;48.40;;;;;;5052723;28;20021;-72
2021/03/31 01:50:13;;;;;;;5.13;2.65;;;11.80;48.60;;;;;;5052354;28;20048;-72
2021/03/31 01:52:41;;;;;;;9.57;3.78;;;11.80;48.60;;;;;;5052640;28;20033;-71
2021/03/31 01:55:11;;;;;;;9.93;3.67;;;11.70;49.10;;;;;;5052533;28;20033;-71
2021/03/31 01:57:38;;;;;;;7.13;3.75;;;11.70;49.60;;;;;;5052420;28;20021;-71
2021/03/31 02:00:05;;;;;;;6.63;3.58;;;11.70;49.60;;;;;;5052187;28;20029;-71
2021/03/31 02:02:33;;;;;;;4.78;2.78;;;11.70;49.50;;;;;;5052317;28;20024;-71
2021/03/31 02:04:59;;;;;;;6.32;3.00;;;11.70;49.30;;;;;;5067688;28;20025;-71
2021/03/31 02:07:25;;;;;;;5.68;3.05;;;11.70;49.30;;;;;;5052366;28;20021;-71
2021/03/31 02:09:52;;;;;;;4.80;2.83;;;11.60;49.20;;;;;;5052352;28;20036;-71
2021/03/31 02:12:24;;;;;;;6.72;3.47;;;11.60;49.10;;;;;;5051022;28;20111;-71
2021/03/31 02:14:53;;;;;;;9.65;3.38;;;11.60;49.60;;;;;;5052214;28;20036;-71
2021/03/31 02:17:22;;;;;;;9.45;3.55;;;11.60;49.60;;;;;;5052164;28;20024;-71
2021/03/31 02:19:50;;;;;;;8.20;2.63;;;11.60;49.40;;;;;;5052216;28;20021;-71
2021/03/31 02:22:18;;;;;;;5.35;3.08;;;11.50;49.30;;;;;;5050854;28;20485;-71
2021/03/31 02:24:45;;;;;;;5.20;3.05;;;11.60;49.30;;;;;;5052089;28;20035;-71
2021/03/31 02:27:13;;;;;;;9.15;3.88;;;11.50;49.40;;;;;;5050633;28;20029;-71
2021/03/31 02:29:39;;;;;;;11.07;3.60;;;11.50;49.60;;;;;;5050616;28;20029;-71
2021/03/31 02:32:08;;;;;;;8.85;3.72;;;11.50;49.50;;;;;;5052011;28;20074;-71
2021/03/31 02:34:36;;;;;;;7.97;3.70;;;11.50;49.60;;;;;;5051906;28;20462;-71
2021/03/31 02:37:04;;;;;;;6.60;3.10;;;11.50;49.70;;;;;;5051952;28;20479;-71
2021/03/31 02:39:32;;;;;;;6.55;3.55;;;11.50;49.70;;;;;;5051956;28;20040;-71
2021/03/31 02:41:59;;;;;;;9.30;3.45;;;11.50;49.60;;;;;;5051839;28;20426;-71
2021/03/31 02:44:28;;;;;;;8.82;4.35;;;11.50;49.60;;;;;;5051954;28;20418;-71
2021/03/31 02:46:56;;;;;;;18.05;3.75;;;11.40;49.70;;;;;;5051868;28;20017;-71
2021/03/31 02:49:26;;;;;;;13.77;3.55;;;11.40;49.60;;;;;;5051672;28;20097;-71
2021/03/31 02:51:52;;;;;;;9.10;3.58;;;11.40;49.80;;;;;;5051642;28;20053;-71
2021/03/31 02:54:19;;;;;;;8.48;3.45;;;11.40;49.90;;;;;;5051730;28;20032;-71
2021/03/31 02:56:46;;;;;;;8.65;3.60;;;11.40;49.90;;;;;;5050359;28;20028;-71
2021/03/31 02:59:12;;;;;;;6.22;3.50;;;11.40;50.00;;;;;;5051547;28;20118;-71
2021/03/31 03:01:39;;;;;;;9.20;3.53;;;11.40;50.00;;;;;;5051694;28;20024;-71
2021/03/31 03:04:05;;;;;;;11.30;4.97;;;11.40;50.10;;;;;;5051670;28;20017;-71
2021/03/31 03:06:31;;;;;;;5.90;3.95;;;11.30;50.30;;;;;;5051607;28;20025;-71
2021/03/31 03:09:02;;;;;;;13.75;4.18;;;11.40;50.30;;;;;;5051588;28;20463;-71
2021/03/31 03:11:28;;;;;;;12.02;4.05;;;11.30;50.20;;;;;;5051574;28;20078;-71
2021/03/31 03:13:55;;;;;;;6.50;3.55;;;11.30;50.20;;;;;;5067055;28;20026;-71
2021/03/31 03:16:20;;;;;;;8.32;3.65;;;11.30;50.30;;;;;;5051496;28;20051;-71
2021/03/31 03:18:46;;;;;;;7.15;3.88;;;11.30;50.20;;;;;;5054149;28;20104;-71
2021/03/31 03:21:15;;;;;;;8.85;3.85;;;11.30;50.30;;;;;;5055207;28;20479;-71
2021/03/31 03:23:42;;;;;;;9.90;4.15;;;11.30;50.40;;;;;;5056370;28;20505;-70
2021/03/31 03:26:11;;;;;;;7.38;3.53;;;11.30;50.50;;;;;;5056328;28;20032;-71
2021/03/31 03:28:43;;;;;;;12.82;4.82;;;11.30;50.50;;;;;;5054021;28;20044;-71
2021/03/31 03:31:09;;;;;;;8.35;4.35;;;11.20;50.70;;;;;;5055159;28;20387;-72
2021/03/31 03:33:36;;;;;;;10.73;4.63;;;11.20;50.60;;;;;;5054019;28;20075;-71
2021/03/31 03:36:10;;;;;;;17.20;4.38;;;11.20;50.80;;;;;;5054987;28;20113;-71
2021/03/31 03:38:36;;;;;;;;;;;11.20;51.20;;;;;;5055384;28;20082;-70
2021/03/31 03:41:13;;;;;;;20.20;4.32;;;11.20;50.30;;;;;;5054884;28;20320;-71
2021/03/31 03:43:40;;;;;;;13.57;4.53;;;11.20;50.80;;;;;;5054861;28;20075;-71
2021/03/31 03:46:12;;;;;;;12.32;4.63;;;11.20;51.20;;;;;;5054794;28;20025;-71
2021/03/31 03:48:39;;;;;;;10.68;4.10;;;11.10;51.50;;;;;;5053515;28;20093;-71
2021/03/31 03:51:09;;;;;;;9.60;4.72;;;11.10;51.30;;;;;;5054508;28;20049;-71
2021/03/31 03:53:36;;;;;;;10.13;3.85;;;11.10;51.50;;;;;;5054589;28;20036;-71
2021/03/31 03:56:03;;;;;;;7.18;4.25;;;11.10;51.30;;;;;;5053192;28;20025;-71
2021/03/31 03:58:29;;;;;;;20.92;4.70;;;11.10;51.40;;;;;;5054443;28;20025;-71
2021/03/31 04:00:58;;;;;;;9.95;4.00;;;11.10;51.30;;;;;;5053845;28;20321;-71
2021/03/31 04:03:24;;;;;;;7.25;4.55;;;11.00;51.50;;;;;;5055074;28;20147;-71
2021/03/31 04:05:49;;;;;;;11.35;4.43;;;11.00;51.70;;;;;;5055301;28;20473;-71
2021/03/31 04:08:15;;;;;;;13.40;5.20;;;11.00;51.70;;;;;;5055269;28;20524;-71
2021/03/31 04:10:43;;;;;;;10.35;4.80;;;11.00;51.70;;;;;;5055275;28;20025;-71
2021/03/31 04:13:11;;;;;;;14.25;5.07;;;11.00;51.60;;;;;;5055151;28;20482;-71
2021/03/31 04:15:37;;;;;;;11.80;4.70;;;11.00;52.10;;;;;;5055117;28;20143;-71
2021/03/31 04:18:05;;;;;;;14.95;6.00;;;11.00;52.20;;;;;;5055043;28;20482;-72
2021/03/31 04:20:32;;;;;;;16.42;4.55;;;10.90;52.40;;;;;;5055033;28;20025;-71
2021/03/31 04:22:58;;;;;;;12.95;5.22;;;10.90;52.20;;;;;;5054911;28;20359;-72
2021/03/31 04:25:25;;;;;;;10.85;4.18;;;11.00;52.20;;;;;;5054966;28;20040;-72
2021/03/31 04:27:54;;;;;;;25.08;5.50;;;10.90;52.20;;;;;;5053648;28;20478;-72
2021/03/31 04:30:21;;;;;;;14.07;4.90;;;10.90;52.20;;;;;;5054777;28;20025;-72
2021/03/31 04:32:52;;;;;;;7.38;3.90;;;10.90;52.20;;;;;;5053444;28;20037;-72
2021/03/31 04:35:20;;;;;;;12.43;4.75;;;10.90;52.10;;;;;;5054782;28;20346;-72
2021/03/31 04:37:46;;;;;;;11.48;5.05;;;10.90;52.10;;;;;;5053347;28;20512;-72
2021/03/31 04:40:14;;;;;;;11.18;4.72;;;10.80;52.70;;;;;;5054807;28;20033;-72
2021/03/31 04:42:40;;;;;;;14.18;6.80;;;10.90;52.90;;;;;;5054646;28;20391;-72
2021/03/31 04:45:08;;;;;;;12.00;4.75;;;10.80;52.80;;;;;;5053228;28;20025;-72
2021/03/31 04:47:35;;;;;;;9.52;4.10;;;10.80;52.80;;;;;;5053139;28;20021;-72
2021/03/31 04:50:02;;;;;;;11.90;4.80;;;10.80;53.30;;;;;;5054211;28;20041;-72
2021/03/31 04:52:29;;;;;;;17.90;5.97;;;10.80;52.70;;;;;;5054542;28;20029;-72
2021/03/31 04:54:55;;;;;;;12.43;4.70;;;10.80;52.90;;;;;;5054273;28;20112;-72
2021/03/31 04:57:21;;;;;;;13.55;4.18;;;10.80;52.90;;;;;;5054373;28;20033;-72
2021/03/31 04:59:47;;;;;;;10.20;4.70;;;10.80;52.90;;;;;;5054198;28;20152;-72
2021/03/31 05:02:13;;;;;;;12.60;4.30;;;10.80;52.80;;;;;;5054065;28;20390;-72
2021/03/31 05:04:39;;;;;;;13.60;4.78;;;10.80;52.80;;;;;;5052988;28;20494;-72
2021/03/31 05:07:05;;;;;;;8.57;3.75;;;10.80;53.00;;;;;;5054101;28;20021;-72
2021/03/31 05:09:31;;;;;;;7.05;4.30;;;10.80;52.90;;;;;;5054050;28;20309;-72
2021/03/31 05:11:58;;;;;;;9.32;4.18;;;10.80;53.00;;;;;;5054066;28;20056;-72
2021/03/31 05:14:24;;;;;;;7.45;3.35;;;10.80;53.00;;;;;;5054030;28;20028;-72
2021/03/31 05:16:50;;;;;;;9.70;4.78;;;10.80;52.90;;;;;;5053784;28;20021;-72
2021/03/31 05:19:15;;;;;;;10.05;4.75;;;10.80;53.20;;;;;;5052444;28;20033;-72
2021/03/31 05:21:41;;;;;;;13.80;5.60;;;10.90;53.30;;;;;;5053785;28;20033;-72
2021/03/31 05:24:07;;;;;;;12.20;4.63;;;10.90;53.40;;;;;;5053655;28;20112;-72
2021/03/31 05:26:33;;;;;;;9.25;4.80;;;10.90;53.30;;;;;;5053716;28;20028;-72
2021/03/31 05:28:59;;;;;;;18.10;6.15;;;11.00;53.40;;;;;;5053588;28;20025;-72
2021/03/31 05:31:25;;;;;;;20.17;5.13;;;11.00;53.50;;;;;;5053512;28;20025;-72
2021/03/31 05:33:51;;;;;;;13.82;5.05;;;11.10;53.50;;;;;;5053546;28;20025;-72
2021/03/31 05:36:16;;;;;;;14.75;5.35;;;11.10;53.50;;;;;;5053534;28;20028;-72
2021/03/31 05:38:42;;;;;;;14.13;6.38;;;11.10;53.50;;;;;;5053210;28;20025;-72
2021/03/31 05:41:08;;;;;;;16.75;6.60;;;11.20;53.70;;;;;;5053546;28;20028;-72
2021/03/31 05:43:35;;;;;;;13.27;6.15;;;11.20;54.00;;;;;;5053062;28;20025;-72
2021/03/31 05:46:02;;;;;;;24.80;6.78;;;11.30;54.10;;;;;;5052083;28;20429;-72
2021/03/31 05:48:28;;;;;;;15.65;6.13;;;11.30;54.20;;;;;;5053417;28;20024;-72
2021/03/31 05:50:53;;;;;;;13.32;6.50;;;11.40;54.20;;;;;;5052982;28;20040;-72
2021/03/31 05:53:19;;;;;;;34.33;6.53;;;11.40;54.40;;;;;;5053345;28;20024;-72
2021/03/31 05:55:45;;;;;;;13.48;6.32;;;11.50;54.20;;;;;;5053221;28;20025;-72
2021/03/31 05:58:12;;;;;;;26.30;7.20;;;11.50;54.20;;;;;;5053115;28;20104;-72
2021/03/31 06:00:38;;;;;;;19.67;5.88;;;11.60;54.20;;;;;;5053102;28;20029;-72
2021/03/31 06:03:08;;;;;;;13.95;6.32;;;11.60;54.10;;;;;;5053023;28;20386;-72
2021/03/31 06:05:34;;;;;;;15.43;5.40;;;11.70;54.00;;;;;;5053219;28;20071;-72
2021/03/31 06:08:00;;;;;;;14.75;6.10;;;11.70;53.80;;;;;;5051948;28;20072;-72
2021/03/31 06:10:28;;;;;;;10.10;5.38;;;11.80;53.70;;;;;;5051853;28;20486;-72
2021/03/31 06:12:59;;;;;;;18.23;6.07;;;11.80;53.70;;;;;;5053040;28;20025;-72
2021/03/31 06:15:37;;;;;;;19.00;7.43;;;11.90;53.50;;;;;;5053035;28;20033;-72
2021/03/31 06:18:15;;;;;;;12.02;5.82;;;12.00;53.60;;;;;;5052754;28;20544;-71
2021/03/31 06:20:57;;;;;;;12.27;5.65;;;12.00;53.40;;;;;;5052912;28;20025;-71
2021/03/31 06:26:31;;;;;;;14.35;5.47;;;12.20;53.20;;;;;;5052979;28;20076;-72
2021/03/31 06:29:05;;;;;;;17.27;6.88;;;12.30;53.10;;;;;;5052712;28;20075;-72
2021/03/31 06:31:33;;;;;;;14.82;7.50;;;12.30;53.10;;;;;;5052783;28;20479;-72
2021/03/31 06:34:05;;;;;;;26.58;7.15;;;12.40;53.10;;;;;;5051472;28;20094;-72
2021/03/31 06:36:45;;;;;;;10.95;5.60;;;12.50;53.00;;;;;;5052833;28;20057;-72
2021/03/31 06:39:22;;;;;;;13.73;6.10;;;12.50;52.90;;;;;;5051366;28;20390;-72
2021/03/31 06:41:52;;;;;;;16.10;6.32;;;12.60;52.80;;;;;;5052554;28;20029;-72
2021/03/31 06:44:37;;;;;;;15.93;6.07;;;12.70;52.60;;;;;;5052608;28;20033;-72
2021/03/31 06:49:32;;;;;;;10.48;6.20;;;12.80;52.40;;;;;;5052511;28;20053;-74
2021/03/31 06:52:06;;;;;;;20.00;6.88;;;12.90;52.40;;;;;;5054939;28;20105;-73
2021/03/31 06:54:44;;;;;;;10.82;5.88;;;13.00;52.30;;;;;;5056691;28;20143;-73
2021/03/31 06:57:12;;;;;;;22.70;7.70;;;13.10;52.10;;;;;;5056523;28;20056;-73
2021/03/31 06:59:41;;;;;;;11.77;6.22;;;13.10;52.00;;;;;;5055222;28;20033;-73
2021/03/31 07:02:07;;;;;;;18.52;6.22;;;13.20;51.90;;;;;;5056471;28;20522;-73
2021/03/31 07:04:35;;;;;;;21.10;6.18;;;13.30;51.80;;;;;;5056453;28;20025;-73
2021/03/31 07:07:10;;;;;;;10.85;5.60;;;13.40;51.70;;;;;;5056390;28;20533;-73
2021/03/31 07:09:37;;;;;;;13.27;6.63;;;13.40;51.60;;;;;;5056345;28;20095;-72
2021/03/31 07:12:17;;;;;;;14.05;7.22;;;13.50;51.50;;;;;;5056162;28;20398;-72
2021/03/31 07:14:47;;;;;;;17.55;7.82;;;13.60;52.00;;;;;;5056181;28;20020;-72
2021/03/31 07:17:20;;;;;;;17.10;7.18;;;13.70;51.40;;;;;;5055958;28;20016;-73
2021/03/31 07:19:47;;;;;;;16.48;7.70;;;13.80;51.30;;;;;;5056033;28;20471;-73
2021/03/31 07:22:14;;;;;;;15.95;6.72;;;13.90;51.10;;;;;;5055840;28;20466;-72
2021/03/31 07:24:40;;;;;;;13.23;6.90;;;14.00;51.00;;;;;;5056035;28;20045;-72
2021/03/31 07:27:08;;;;;;;20.67;7.68;;;14.00;50.90;;;;;;5055660;28;20473;-72
2021/03/31 07:29:36;;;;;;;20.45;10.55;;;14.10;50.80;;;;;;5055623;28;20025;-71
2021/03/31 07:32:05;;;;;;;14.60;8.00;;;14.20;50.60;;;;;;5055949;28;20387;-71
2021/03/31 07:34:32;;;;;;;13.30;7.05;;;14.30;50.30;;;;;;5054496;28;20079;-72
2021/03/31 07:36:59;;;;;;;24.45;8.68;;;14.40;50.20;;;;;;5054297;28;20625;-72
2021/03/31 07:39:30;;;;;;;23.40;10.40;;;14.40;50.20;;;;;;5055644;28;20108;-72
2021/03/31 07:41:57;;;;;;;27.17;11.13;;;14.50;50.10;;;;;;5055467;28;20021;-73
2021/03/31 07:44:27;;;;;;;21.05;11.73;;;14.60;49.90;;;;;;5055259;28;20028;-72
2021/03/31 07:46:54;;;;;;;22.42;12.13;;;14.60;49.60;;;;;;5055551;28;20036;-73
2021/03/31 07:49:22;;;;;;;16.63;10.20;;;14.70;49.40;;;;;;5055795;28;20090;-72
2021/03/31 07:51:59;;;;;;;26.70;12.40;;;14.70;49.30;;;;;;5055385;28;20131;-72
2021/03/31 07:54:26;;;;;;;29.40;13.38;;;14.80;49.10;;;;;;5055324;28;20047;-72
2021/03/31 07:56:52;;;;;;;21.02;12.40;;;14.90;49.00;;;;;;5054055;28;20025;-72
2021/03/31 07:59:19;;;;;;;35.17;13.40;;;15.00;48.80;;;;;;5054520;28;20025;-72
2021/03/31 08:01:50;;;;;;;28.23;14.63;;;15.10;48.70;;;;;;5054456;28;20020;-73
2021/03/31 08:04:19;;;;;;;28.80;13.73;;;15.20;48.60;;;;;;5053780;28;20548;-73
2021/03/31 08:06:46;;;;;;;24.58;11.77;;;15.20;48.50;;;;;;5055109;28;20020;-73
2021/03/31 08:09:19;;;;;;;28.23;11.15;;;15.30;48.50;;;;;;5055139;28;20113;-73
2021/03/31 08:11:52;;;;;;;21.00;10.60;;;15.40;48.40;;;;;;5054829;28;20079;-73
2021/03/31 08:14:37;;;;;;;17.83;9.00;;;15.50;48.30;;;;;;5055278;28;20464;-73
2021/03/31 08:17:06;;;;;;;23.52;11.68;;;15.60;48.20;;;;;;5053862;28;20436;-73
2021/03/31 08:19:39;;;;;;;23.23;12.00;;;15.70;47.80;;;;;;5054987;28;20537;-73
2021/03/31 08:22:38;;;;;;;24.13;10.15;;;15.80;47.50;;;;;;5054700;28;20077;-72
2021/03/31 08:25:15;;;;;;;17.95;10.32;;;15.90;47.50;;;;;;5052305;28;20049;-73
2021/03/31 08:27:59;;;;;;;21.88;10.70;;;16.00;47.30;;;;;;5035971;28;20044;-73
2021/03/31 08:30:25;;;;;;;27.80;10.55;;;16.10;46.70;;;;;;5052590;28;20135;-72
2021/03/31 08:32:53;;;;;;;40.25;12.80;;;16.30;47.00;;;;;;5052588;28;20577;-72
2021/03/31 08:35:20;;;;;;;34.20;11.80;;;16.30;46.60;;;;;;5052603;28;20040;-73
2021/03/31 08:37:48;;;;;;;19.45;9.93;;;16.40;46.30;;;;;;5052667;28;20025;-73
2021/03/31 08:40:14;;;;;;;20.50;9.45;;;16.50;46.20;;;;;;5064492;28;20507;-73
2021/03/31 08:42:53;;;;;;;21.67;10.18;;;16.70;46.10;;;;;;5072525;28;20033;-72
2021/03/31 08:45:33;;;;;;;20.58;10.60;;;16.80;45.80;;;;;;5072494;28;20028;-73
2021/03/31 08:47:59;;;;;;;21.15;9.30;;;16.90;45.60;;;;;;5072455;28;20033;-73
2021/03/31 08:50:29;;;;;;;45.35;12.82;;;17.00;45.60;;;;;;5055236;28;20037;-73
2021/03/31 08:53:09;;;;;;;15.90;10.32;;;17.10;44.90;;;;;;5072338;28;20182;-73
2021/03/31 08:55:37;;;;;;;21.98;10.40;;;17.20;44.30;;;;;;5072279;28;20032;-73
2021/03/31 08:58:08;;;;;;;20.02;10.68;;;17.30;43.80;;;;;;5072216;28;20032;-73
2021/03/31 09:00:44;;;;;;;23.00;10.73;;;17.40;43.70;;;;;;5063457;28;20044;-73
2021/03/31 09:03:10;;;;;;;16.67;9.13;;;17.50;43.30;;;;;;5054244;28;20025;-72
2021/03/31 09:05:36;;;;;;;21.55;9.50;;;17.60;43.60;;;;;;5054119;28;20025;-73
2021/03/31 09:08:02;;;;;;;22.55;10.05;;;17.70;43.30;;;;;;5054310;28;20383;-73
2021/03/31 09:10:29;;;;;;;25.08;10.07;;;17.80;43.00;;;;;;5054087;28;20482;-73
2021/03/31 09:12:55;;;;;;;16.45;9.50;;;17.90;42.80;;;;;;5053946;28;20033;-74
2021/03/31 09:15:22;;;;;;;17.77;9.00;;;18.00;42.60;;;;;;5052095;28;20398;-73
2021/03/31 09:17:54;;;;;;;18.08;10.20;;;18.10;42.60;;;;;;5055720;28;20032;-73
2021/03/31 09:20:20;;;;;;;19.40;10.15;;;18.20;42.50;;;;;;5056042;28;20029;-73
2021/03/31 09:22:46;;;;;;;24.08;11.50;;;18.30;42.40;;;;;;5052095;28;20025;-73
2021/03/31 09:25:14;;;;;;;24.92;12.45;;;18.40;42.20;;;;;;5055504;28;20031;-74
2021/03/31 09:27:40;;;;;;;32.80;11.30;;;18.50;41.10;;;;;;5072816;28;20027;-73
2021/03/31 09:30:11;;;;;;;32.83;13.00;;;18.60;41.20;;;;;;5072875;28;20020;-73
2021/03/31 09:32:48;;;;;;;18.65;10.25;;;18.70;41.30;;;;;;5072814;28;20024;-73
2021/03/31 09:35:16;;;;;;;29.20;11.80;;;18.80;41.20;;;;;;5072715;28;20058;-73
2021/03/31 09:37:45;;;;;;;19.00;10.30;;;18.90;40.40;;;;;;5069644;28;20061;-74
2021/03/31 09:40:23;;;;;;;19.73;10.63;;;19.00;41.00;;;;;;5052709;28;20432;-74
2021/03/31 09:43:04;;;;;;;35.15;12.93;;;19.20;40.30;;;;;;5052453;28;20079;-73
2021/03/31 09:45:31;;;;;;;26.65;12.18;;;19.30;39.50;;;;;;5051390;28;20584;-74
2021/03/31 09:47:59;;;;;;;23.38;11.35;;;19.30;39.70;;;;;;5052641;28;20076;-73
2021/03/31 09:50:27;;;;;;;19.80;11.52;;;19.40;39.10;;;;;;5052306;28;20047;-74
2021/03/31 09:53:00;;;;;;;21.13;10.77;;;19.50;39.30;;;;;;5052280;28;20104;-73
2021/03/31 09:55:27;;;;;;;26.02;11.93;;;19.60;39.40;;;;;;5050876;28;20048;-73
2021/03/31 09:57:55;;;;;;;28.02;11.13;;;19.70;38.60;;;;;;5052305;28;20107;-74
2021/03/31 10:00:24;;;;;;;23.83;10.15;;;19.70;38.50;;;;;;5052282;28;20083;-74
2021/03/31 10:02:51;;;;;;;22.42;9.88;;;19.80;38.20;;;;;;5052266;28;20133;-74
2021/03/31 10:05:22;;;;;;;17.88;9.77;;;19.90;37.60;;;;;;5051792;28;20071;-73
2021/03/31 10:08:04;;;;;;;17.85;8.02;;;20.00;37.40;;;;;;5052714;28;20023;-74
2021/03/31 10:10:51;;;;;;;23.80;9.05;;;20.00;37.70;;;;;;5051749;28;20021;-71
2021/03/31 10:13:19;;;;;;;22.08;9.55;;;20.10;36.80;;;;;;5053031;28;20028;-73
2021/03/31 10:15:58;;;;;;;26.13;10.55;;;20.20;37.40;;;;;;5051753;28;20044;-73
2021/03/31 10:18:27;;;;;;;27.90;13.73;;;20.30;36.70;;;;;;5052968;28;20021;-73
2021/03/31 10:20:58;;;;;;;32.22;12.35;;;20.30;35.90;;;;;;5052845;28;20028;-73
2021/03/31 10:23:35;;;;;;;24.60;10.95;;;20.40;35.40;;;;;;5052810;28;20032;-73
2021/03/31 10:26:20;;;;;;;26.38;10.65;;;20.50;35.70;;;;;;5052821;28;20055;-73
2021/03/31 10:28:47;;;;;;;21.75;9.80;;;20.60;36.30;;;;;;5051386;28;20033;-72
2021/03/31 10:31:24;;;;;;;25.45;10.32;;;20.70;35.80;;;;;;5052863;28;20021;-72
2021/03/31 10:33:50;;;;;;;19.65;9.35;;;20.80;35.20;;;;;;5052725;28;20031;-72
2021/03/31 10:53:13;;;;;;;24.15;11.20;;;21.40;34.30;;;;;;5052258;28;20382;-72
2021/03/31 10:55:42;;;;;;;22.83;9.75;;;21.50;34.70;;;;;;5052315;28;20074;-73
2021/03/31 10:58:08;;;;;;;17.42;9.10;;;21.60;34.70;;;;;;5050914;28;20051;-73
2021/03/31 11:00:35;;;;;;;24.23;10.60;;;21.60;34.30;;;;;;5051133;28;20078;-73
2021/03/31 11:03:01;;;;;;;25.50;11.27;;;21.60;33.90;;;;;;5052072;28;20044;-73
2021/03/31 11:05:27;;;;;;;23.27;11.25;;;21.70;33.30;;;;;;5052657;28;20021;-73
2021/03/31 11:07:54;;;;;;;24.48;10.55;;;21.80;33.20;;;;;;5052213;28;20482;-73
2021/03/31 11:10:20;;;;;;;37.03;11.82;;;21.80;33.30;;;;;;5052371;28;20021;-72
2021/03/31 11:12:45;;;;;;;27.60;10.73;;;21.90;33.40;;;;;;5052243;28;20029;-73
2021/03/31 11:15:14;;;;;;;33.75;11.15;;;21.90;33.30;;;;;;5050841;28;20390;-73
2021/03/31 11:17:54;;;;;;;25.65;10.60;;;22.00;33.10;;;;;;5052378;28;20017;-73
2021/03/31 11:28:21;;;;;;;29.50;12.00;;;22.30;32.60;;;;;;5052106;28;20462;-73
2021/03/31 11:30:47;;;;;;;18.77;10.40;;;22.40;31.80;;;;;;5050761;28;20108;-73
2021/03/31 11:33:13;;;;;;;25.15;10.00;;;22.40;32.00;;;;;;5050610;28;20029;-73
2021/03/31 11:35:39;;;;;;;18.05;9.88;;;22.50;31.50;;;;;;5050753;28;20028;-73
2021/03/31 11:38:05;;;;;;;29.42;11.48;;;22.50;31.60;;;;;;5054017;28;20025;-72
2021/03/31 11:40:31;;;;;;;20.67;10.40;;;22.50;31.10;;;;;;5055522;28;20032;-73
2021/03/31 11:42:57;;;;;;;26.60;10.25;;;22.60;31.30;;;;;;5055569;28;20039;-73
2021/03/31 11:45:24;;;;;;;22.48;10.88;;;22.70;30.70;;;;;;5054217;28;20017;-73
2021/03/31 11:47:49;;;;;;;20.30;11.48;;;22.70;31.50;;;;;;5055314;28;20021;-73
2021/03/31 11:50:15;;;;;;;24.60;9.57;;;22.80;30.90;;;;;;5055144;28;20041;-73
2021/03/31 11:52:42;;;;;;;19.33;8.90;;;22.90;31.10;;;;;;5055431;28;20052;-73
2021/03/31 11:55:08;;;;;;;21.23;9.38;;;22.90;31.20;;;;;;5054076;28;20033;-72
2021/03/31 11:57:35;;;;;;;15.70;7.72;;;23.00;30.40;;;;;;5055624;28;20056;-72
2021/03/31 12:00:03;;;;;;;17.60;8.65;;;23.10;30.60;;;;;;5055330;28;20083;-73
2021/03/31 12:02:28;;;;;;;15.57;7.47;;;23.10;29.50;;;;;;5055186;28;20048;-72
2021/03/31 12:04:54;;;;;;;15.30;7.05;;;23.20;28.80;;;;;;5055100;28;20427;-73
2021/03/31 12:07:20;;;;;;;20.02;6.20;;;23.20;29.00;;;;;;5054970;28;20086;-73
2021/03/31 12:09:47;;;;;;;11.63;5.90;;;23.30;29.60;;;;;;5054934;28;20024;-73
2021/03/31 12:12:13;;;;;;;12.50;6.55;;;23.40;29.10;;;;;;5055196;28;20112;-73
2021/03/31 12:14:42;;;;;;;12.90;5.55;;;23.50;28.80;;;;;;5066713;28;20027;-73
2021/03/31 12:17:09;;;;;;;13.13;6.63;;;23.60;28.90;;;;;;5074420;28;20031;-73
2021/03/31 12:19:35;;;;;;;16.05;7.05;;;23.60;28.60;;;;;;5067058;28;20025;-73
2021/03/31 12:22:01;;;;;;;19.10;7.20;;;23.70;28.30;;;;;;5085874;28;20017;-73
2021/03/31 12:24:27;;;;;;;14.82;6.72;;;23.70;27.70;;;;;;5068638;28;20033;-73
2021/03/31 12:27:00;;;;;;;9.18;4.90;;;23.80;27.40;;;;;;5066664;28;20485;-72
2021/03/31 12:29:26;;;;;;;11.90;5.55;;;23.80;27.80;;;;;;5074813;28;20054;-73
2021/03/31 12:31:51;;;;;;;12.85;5.90;;;23.90;27.60;;;;;;5060943;28;20056;-73
2021/03/31 12:34:17;;;;;;;15.02;5.68;;;23.90;27.40;;;;;;5067042;28;20029;-73
2021/03/31 12:36:43;;;;;;;13.50;5.63;;;24.00;28.10;;;;;;5063040;28;20025;-73
2021/03/31 12:39:09;;;;;;;11.55;6.20;;;24.10;27.60;;;;;;5054205;28;20467;-73
2021/03/31 12:41:35;;;;;;;10.63;5.30;;;24.10;27.50;;;;;;5072609;28;20033;-73
2021/03/31 12:44:01;;;;;;;9.73;5.05;;;24.10;26.40;;;;;;5074407;28;20025;-73
2021/03/31 12:46:27;;;;;;;10.43;5.35;;;24.10;26.90;;;;;;5074353;28;20048;-73
2021/03/31 12:48:52;;;;;;;10.00;4.68;;;24.20;27.20;;;;;;5073306;28;20021;-73
2021/03/31 12:51:42;;;;;;;8.23;4.80;;;24.20;26.80;;;;;;5072821;28;20080;-73
2021/03/31 12:56:43;;;;;;;16.63;6.78;;;24.30;27.20;;;;;;5054357;28;20024;-73
2021/03/31 12:59:09;;;;;;;27.70;7.03;;;24.40;27.00;;;;;;5054176;28;20070;-73
2021/03/31 13:01:36;;;;;;;20.10;7.22;;;24.40;27.00;;;;;;5052809;28;20033;-73
2021/03/31 13:04:03;;;;;;;14.25;6.00;;;24.40;27.00;;;;;;5057501;28;20021;-73
2021/03/31 13:06:32;;;;;;;15.15;5.65;;;24.50;26.80;;;;;;5068910;28;20021;-73
2021/03/31 13:08:59;;;;;;;12.80;5.03;;;24.50;26.80;;;;;;5061988;28;20028;-73
2021/03/31 13:11:26;;;;;;;16.95;5.90;;;24.60;27.20;;;;;;5053049;28;20029;-73
2021/03/31 13:16:42;;;;;;;16.38;5.93;;;24.60;27.30;;;;;;5054117;28;20017;-73
2021/03/31 13:25:05;;;;;;;14.07;5.75;;;24.80;26.50;;;;;;5051766;28;20033;-73
2021/03/31 13:32:46;;;;;;;14.80;5.50;;;24.90;25.70;;;;;;5053753;28;20032;-73
2021/03/31 13:35:23;;;;;;;11.07;5.20;;;24.90;26.00;;;;;;5053641;28;20040;-73